Glenville, West Virginia
Current Conditions -  °F | °C
As of 10:55 AM on Thursday 27 Nov 2014 (Local Time) from KW22 Reporting Station
Overcast Overcast  
Wind Chill: 25°   Ceiling: 3500
Heat Index: 32°   Visibility: 9mi
Dew Point: 32°   Wind: 8mph
Humidity: 100%   Direction: 280°W
Pressure: 30.07"   Gusts: NA
Location:  38.93°N, 80.84°W
Report Text: KW22 271555Z AUTO 28007KT 9SM OVC035 M00/M00 A3007 RMK AO2
Loading
Personal Weather Stations






























Interactive Weather Map New forecast layout! Learn more

10-Day Weather Forecast

Advertisements
Track Severe Weather on mobile